sensor_id;sensor_type;location;lat;lon;timestamp;pressure;altitude;pressure_sealevel;temperature;humidity
71567;BME280;59403;47.456;19.120;2022-10-23T00:00:29;100854.06;;;8.55;100.00
71567;BME280;59403;47.456;19.120;2022-10-23T00:02:57;100853.53;;;8.61;100.00
71567;BME280;59403;47.456;19.120;2022-10-23T00:05:25;100847.03;;;8.65;100.00
71567;BME280;59403;47.456;19.120;2022-10-23T00:07:53;100861.75;;;8.67;100.00
71567;BME280;59403;47.456;19.120;2022-10-23T00:10:22;100864.25;;;8.69;100.00
71567;BME280;59403;47.456;19.120;2022-10-23T00:12:49;100867.72;;;8.69;100.00
71567;BME280;59403;47.456;19.120;2022-10-23T00:15:18;100863.56;;;8.67;100.00
71567;BME280;59403;47.456;19.120;2022-10-23T00:17:46;100870.78;;;8.65;100.00
71567;BME280;59403;47.456;19.120;2022-10-23T00:20:16;100871.34;;;8.38;100.00
71567;BME280;59403;47.456;19.120;2022-10-23T00:22:43;100878.03;;;8.42;100.00
71567;BME280;59403;47.456;19.120;2022-10-23T00:25:09;100884.34;;;8.51;100.00
71567;BME280;59403;47.456;19.120;2022-10-23T00:27:36;100879.06;;;8.51;100.00
71567;BME280;59403;47.456;19.120;2022-10-23T00:30:04;100883.91;;;8.46;100.00
71567;BME280;59403;47.456;19.120;2022-10-23T00:32:31;100889.41;;;8.43;100.00
71567;BME280;59403;47.456;19.120;2022-10-23T00:34:58;100890.41;;;8.42;100.00
71567;BME280;59403;47.456;19.120;2022-10-23T00:37:26;100891.25;;;8.42;100.00
71567;BME280;59403;47.456;19.120;2022-10-23T00:39:54;100892.19;;;8.41;100.00
71567;BME280;59403;47.456;19.120;2022-10-23T00:42:22;100900.69;;;8.45;100.00
71567;BME280;59403;47.456;19.120;2022-10-23T00:45:12;100894.97;;;8.40;100.00
71567;BME280;59403;47.456;19.120;2022-10-23T00:47:40;100901.78;;;8.42;100.00
71567;BME280;59403;47.456;19.120;2022-10-23T00:50:07;100912.72;;;8.38;100.00
71567;BME280;59403;47.456;19.120;2022-10-23T00:52:40;100910.22;;;8.36;100.00
71567;BME280;59403;47.456;19.120;2022-10-23T00:55:07;100906.19;;;8.32;100.00
71567;BME280;59403;47.456;19.120;2022-10-23T00:57:34;100912.56;;;8.30;100.00
71567;BME280;59403;47.456;19.120;2022-10-23T01:00:02;100916.16;;;8.29;100.00
71567;BME280;59403;47.456;19.120;2022-10-23T01:02:29;100910.75;;;8.30;100.00
71567;BME280;59403;47.456;19.120;2022-10-23T01:04:56;100919.38;;;8.32;100.00
71567;BME280;59403;47.456;19.120;2022-10-23T01:07:28;100924.09;;;8.29;100.00
71567;BME280;59403;47.456;19.120;2022-10-23T01:10:09;100927.31;;;8.21;100.00
71567;BME280;59403;47.456;19.120;2022-10-23T01:12:44;100924.56;;;8.23;100.00
71567;BME280;59403;47.456;19.120;2022-10-23T01:15:18;100934.16;;;8.24;100.00
71567;BME280;59403;47.456;19.120;2022-10-23T01:17:51;100935.84;;;8.25;100.00
71567;BME280;59403;47.456;19.120;2022-10-23T01:20:31;100935.84;;;8.25;100.00
71567;BME280;59403;47.456;19.120;2022-10-23T01:23:23;100946.75;;;8.20;100.00
71567;BME280;59403;47.456;19.120;2022-10-23T01:26:10;100940.06;;;8.16;100.00
71567;BME280;59403;47.456;19.120;2022-10-23T01:28:46;100942.72;;;8.16;100.00
71567;BME280;59403;47.456;19.120;2022-10-23T01:31:18;100943.16;;;8.21;100.00
71567;BME280;59403;47.456;19.120;2022-10-23T01:33:53;100940.78;;;8.18;100.00
71567;BME280;59403;47.456;19.120;2022-10-23T01:36:22;100946.69;;;8.11;100.00
71567;BME280;59403;47.456;19.120;2022-10-23T01:38:53;100939.63;;;8.11;100.00
71567;BME280;59403;47.456;19.120;2022-10-23T01:41:27;100939.34;;;8.14;100.00
71567;BME280;59403;47.456;19.120;2022-10-23T01:44:00;100935.41;;;8.08;100.00
71567;BME280;59403;47.456;19.120;2022-10-23T01:46:29;100938.59;;;8.02;100.00
71567;BME280;59403;47.456;19.120;2022-10-23T01:49:01;100940.12;;;8.05;100.00
71567;BME280;59403;47.456;19.120;2022-10-23T01:51:30;100940.50;;;8.00;100.00
71567;BME280;59403;47.456;19.120;2022-10-23T01:53:59;100944.44;;;8.06;100.00
71567;BME280;59403;47.456;19.120;2022-10-23T01:56:30;100938.78;;;8.11;100.00
71567;BME280;59403;47.456;19.120;2022-10-23T01:59:03;100939.75;;;8.10;100.00
71567;BME280;59403;47.456;19.120;2022-10-23T02:04:32;100938.19;;;8.07;100.00
71567;BME280;59403;47.456;19.120;2022-10-23T02:06:59;100935.28;;;8.10;100.00
71567;BME280;59403;47.456;19.120;2022-10-23T02:09:26;100936.44;;;7.96;100.00
71567;BME280;59403;47.456;19.120;2022-10-23T02:11:58;100931.16;;;7.96;100.00
71567;BME280;59403;47.456;19.120;2022-10-23T02:14:35;100934.38;;;8.00;100.00
71567;BME280;59403;47.456;19.120;2022-10-23T02:17:08;100936.31;;;7.98;100.00
71567;BME280;59403;47.456;19.120;2022-10-23T02:19:43;100944.47;;;7.95;100.00
71567;BME280;59403;47.456;19.120;2022-10-23T02:22:15;100940.28;;;7.92;100.00
71567;BME280;59403;47.456;19.120;2022-10-23T02:24:48;100940.16;;;7.94;100.00
71567;BME280;59403;47.456;19.120;2022-10-23T02:27:20;100936.13;;;7.90;100.00
71567;BME280;59403;47.456;19.120;2022-10-23T02:29:51;100940.28;;;7.92;100.00
71567;BME280;59403;47.456;19.120;2022-10-23T02:32:23;100943.06;;;7.91;100.00
71567;BME280;59403;47.456;19.120;2022-10-23T02:34:52;100943.19;;;7.89;100.00
71567;BME280;59403;47.456;19.120;2022-10-23T02:37:19;100939.00;;;7.87;100.00
71567;BME280;59403;47.456;19.120;2022-10-23T02:39:46;100942.47;;;7.87;100.00
71567;BME280;59403;47.456;19.120;2022-10-23T02:42:16;100935.91;;;7.82;100.00
71567;BME280;59403;47.456;19.120;2022-10-23T02:44:54;100944.59;;;7.73;100.00
71567;BME280;59403;47.456;19.120;2022-10-23T02:47:43;100950.62;;;7.84;100.00
71567;BME280;59403;47.456;19.120;2022-10-23T02:50:20;100954.94;;;7.85;100.00
71567;BME280;59403;47.456;19.120;2022-10-23T02:52:57;100957.50;;;7.76;100.00
71567;BME280;59403;47.456;19.120;2022-10-23T02:55:32;100973.31;;;7.76;100.00
71567;BME280;59403;47.456;19.120;2022-10-23T02:58:06;100966.63;;;7.72;100.00
71567;BME280;59403;47.456;19.120;2022-10-23T03:00:38;100976.97;;;7.64;100.00
71567;BME280;59403;47.456;19.120;2022-10-23T03:03:10;100973.81;;;7.70;100.00
71567;BME280;59403;47.456;19.120;2022-10-23T03:05:40;100975.63;;;7.69;100.00
71567;BME280;59403;47.456;19.120;2022-10-23T03:08:10;100979.47;;;7.65;100.00
71567;BME280;59403;47.456;19.120;2022-10-23T03:10:37;100979.84;;;7.61;100.00
71567;BME280;59403;47.456;19.120;2022-10-23T03:13:04;100981.75;;;7.59;100.00
71567;BME280;59403;47.456;19.120;2022-10-23T03:15:32;100979.13;;;7.59;100.00
71567;BME280;59403;47.456;19.120;2022-10-23T03:18:00;100986.06;;;7.60;100.00
71567;BME280;59403;47.456;19.120;2022-10-23T03:20:26;100979.72;;;7.62;100.00
71567;BME280;59403;47.456;19.120;2022-10-23T03:22:54;100977.81;;;7.64;100.00
71567;BME280;59403;47.456;19.120;2022-10-23T03:25:21;100985.81;;;7.63;100.00
71567;BME280;59403;47.456;19.120;2022-10-23T03:27:47;100984.53;;;7.57;100.00
71567;BME280;59403;47.456;19.120;2022-10-23T03:30:14;100983.56;;;7.58;100.00
71567;BME280;59403;47.456;19.120;2022-10-23T03:32:41;100980.31;;;7.55;100.00
71567;BME280;59403;47.456;19.120;2022-10-23T03:35:09;100979.47;;;7.54;100.00
71567;BME280;59403;47.456;19.120;2022-10-23T03:37:36;100990.16;;;7.53;100.00
71567;BME280;59403;47.456;19.120;2022-10-23T03:40:04;100986.78;;;7.51;100.00
71567;BME280;59403;47.456;19.120;2022-10-23T03:42:31;100999.28;;;7.49;100.00
71567;BME280;59403;47.456;19.120;2022-10-23T03:44:58;101001.06;;;7.48;100.00
71567;BME280;59403;47.456;19.120;2022-10-23T03:47:25;100997.38;;;7.40;100.00
71567;BME280;59403;47.456;19.120;2022-10-23T03:49:52;100997.84;;;7.45;100.00
71567;BME280;59403;47.456;19.120;2022-10-23T03:52:20;101003.84;;;7.47;100.00
71567;BME280;59403;47.456;19.120;2022-10-23T03:54:47;101003.97;;;7.45;100.00
71567;BME280;59403;47.456;19.120;2022-10-23T03:57:13;101003.37;;;7.42;100.00
71567;BME280;59403;47.456;19.120;2022-10-23T03:59:40;101004.19;;;7.42;100.00
71567;BME280;59403;47.456;19.120;2022-10-23T04:02:07;101011.62;;;7.37;100.00
71567;BME280;59403;47.456;19.120;2022-10-23T04:04:34;101007.53;;;7.33;100.00
71567;BME280;59403;47.456;19.120;2022-10-23T04:07:01;100996.91;;;7.35;100.00
71567;BME280;59403;47.456;19.120;2022-10-23T04:09:29;101008.72;;;7.40;100.00
71567;BME280;59403;47.456;19.120;2022-10-23T04:11:56;101008.62;;;7.42;100.00
71567;BME280;59403;47.456;19.120;2022-10-23T04:14:24;101001.66;;;7.41;100.00
71567;BME280;59403;47.456;19.120;2022-10-23T04:16:51;101000.13;;;7.38;100.00
71567;BME280;59403;47.456;19.120;2022-10-23T04:19:18;101005.41;;;7.38;100.00
71567;BME280;59403;47.456;19.120;2022-10-23T04:21:45;100998.44;;;7.37;100.00
71567;BME280;59403;47.456;19.120;2022-10-23T04:24:11;101003.00;;;7.35;100.00
71567;BME280;59403;47.456;19.120;2022-10-23T04:26:40;101005.28;;;7.40;100.00
71567;BME280;59403;47.456;19.120;2022-10-23T04:29:07;101001.94;;;7.38;100.00
71567;BME280;59403;47.456;19.120;2022-10-23T04:31:34;100991.38;;;7.38;100.00
71567;BME280;59403;47.456;19.120;2022-10-23T04:34:00;100987.56;;;7.31;100.00
71567;BME280;59403;47.456;19.120;2022-10-23T04:36:27;100990.31;;;7.29;100.00
71567;BME280;59403;47.456;19.120;2022-10-23T04:38:54;100998.47;;;7.26;100.00
71567;BME280;59403;47.456;19.120;2022-10-23T04:41:21;100993.44;;;7.23;100.00
71567;BME280;59403;47.456;19.120;2022-10-23T04:43:49;100987.22;;;7.24;100.00
71567;BME280;59403;47.456;19.120;2022-10-23T04:46:16;100983.84;;;7.22;100.00
71567;BME280;59403;47.456;19.120;2022-10-23T04:48:43;100995.47;;;7.20;100.00
71567;BME280;59403;47.456;19.120;2022-10-23T04:51:10;100992.94;;;7.18;100.00
71567;BME280;59403;47.456;19.120;2022-10-23T04:53:37;100991.41;;;7.16;100.00
71567;BME280;59403;47.456;19.120;2022-10-23T04:56:05;100994.38;;;7.11;100.00
71567;BME280;59403;47.456;19.120;2022-10-23T04:58:32;101005.78;;;7.12;100.00
71567;BME280;59403;47.456;19.120;2022-10-23T05:01:00;101008.66;;;7.09;100.00
71567;BME280;59403;47.456;19.120;2022-10-23T05:03:27;101017.63;;;7.06;100.00
71567;BME280;59403;47.456;19.120;2022-10-23T05:05:55;101013.19;;;7.07;100.00
71567;BME280;59403;47.456;19.120;2022-10-23T05:08:22;101014.13;;;7.06;100.00
71567;BME280;59403;47.456;19.120;2022-10-23T05:10:49;101021.81;;;7.09;100.00
71567;BME280;59403;47.456;19.120;2022-10-23T05:13:17;101019.78;;;7.12;100.00
71567;BME280;59403;47.456;19.120;2022-10-23T05:15:45;101016.06;;;7.15;100.00
71567;BME280;59403;47.456;19.120;2022-10-23T05:18:18;101016.06;;;7.15;100.00
71567;BME280;59403;47.456;19.120;2022-10-23T05:20:46;101017.84;;;7.14;100.00
71567;BME280;59403;47.456;19.120;2022-10-23T05:23:16;101018.81;;;7.13;100.00
71567;BME280;59403;47.456;19.120;2022-10-23T05:25:44;101015.12;;;7.16;100.00
71567;BME280;59403;47.456;19.120;2022-10-23T05:28:11;101008.41;;;7.12;100.00
71567;BME280;59403;47.456;19.120;2022-10-23T05:30:38;101011.97;;;7.11;100.00
71567;BME280;59403;47.456;19.120;2022-10-23T05:33:05;101019.78;;;7.12;100.00
71567;BME280;59403;47.456;19.120;2022-10-23T05:35:35;101020.72;;;7.11;100.00
71567;BME280;59403;47.456;19.120;2022-10-23T05:38:02;101015.22;;;7.14;100.00
71567;BME280;59403;47.456;19.120;2022-10-23T05:40:29;101028.38;;;7.14;100.00
71567;BME280;59403;47.456;19.120;2022-10-23T05:42:56;101032.09;;;7.12;100.00
71567;BME280;59403;47.456;19.120;2022-10-23T05:45:23;101031.13;;;7.13;100.00
71567;BME280;59403;47.456;19.120;2022-10-23T05:47:50;101021.94;;;7.18;100.00
71567;BME280;59403;47.456;19.120;2022-10-23T05:50:18;101036.06;;;7.17;100.00
71567;BME280;59403;47.456;19.120;2022-10-23T05:52:47;101043.00;;;7.18;100.00
71567;BME280;59403;47.456;19.120;2022-10-23T05:55:14;101047.19;;;7.21;100.00
71567;BME280;59403;47.456;19.120;2022-10-23T05:57:41;101039.06;;;7.24;100.00
71567;BME280;59403;47.456;19.120;2022-10-23T06:00:10;101040.25;;;7.31;100.00
71567;BME280;59403;47.456;19.120;2022-10-23T06:02:37;101026.69;;;7.35;100.00
71567;BME280;59403;47.456;19.120;2022-10-23T06:05:04;101030.53;;;7.42;100.00
71567;BME280;59403;47.456;19.120;2022-10-23T06:07:31;101036.53;;;7.44;100.00
71567;BME280;59403;47.456;19.120;2022-10-23T06:09:59;101033.53;;;7.49;100.00
71567;BME280;59403;47.456;19.120;2022-10-23T06:12:26;101042.97;;;7.51;100.00
71567;BME280;59403;47.456;19.120;2022-10-23T06:14:53;101049.56;;;7.57;100.00
71567;BME280;59403;47.456;19.120;2022-10-23T06:17:20;101058.06;;;7.60;100.00
71567;BME280;59403;47.456;19.120;2022-10-23T06:19:47;101055.06;;;7.65;100.00
71567;BME280;59403;47.456;19.120;2022-10-23T06:22:14;101050.37;;;7.68;100.00
71567;BME280;59403;47.456;19.120;2022-10-23T06:24:41;101048.34;;;7.72;100.00
71567;BME280;59403;47.456;19.120;2022-10-23T06:27:09;101053.47;;;7.73;100.00
71567;BME280;59403;47.456;19.120;2022-10-23T06:29:36;101058.53;;;7.76;100.00
71567;BME280;59403;47.456;19.120;2022-10-23T06:32:03;101062.44;;;7.82;100.00
71567;BME280;59403;47.456;19.120;2022-10-23T06:34:30;101064.63;;;7.88;100.00
71567;BME280;59403;47.456;19.120;2022-10-23T06:36:56;101076.22;;;7.96;100.00
71567;BME280;59403;47.456;19.120;2022-10-23T06:39:23;101078.44;;;8.12;100.00
71567;BME280;59403;47.456;19.120;2022-10-23T06:41:50;101078.19;;;8.26;100.00
71567;BME280;59403;47.456;19.120;2022-10-23T06:44:18;101082.00;;;8.33;100.00
71567;BME280;59403;47.456;19.120;2022-10-23T06:46:45;101084.03;;;8.41;100.00
71567;BME280;59403;47.456;19.120;2022-10-23T06:49:13;101096.00;;;8.45;100.00
71567;BME280;59403;47.456;19.120;2022-10-23T06:51:40;101095.19;;;8.44;100.00
71567;BME280;59403;47.456;19.120;2022-10-23T06:54:09;101096.94;;;8.55;100.00
71567;BME280;59403;47.456;19.120;2022-10-23T06:56:36;101096.28;;;8.62;100.00
71567;BME280;59403;47.456;19.120;2022-10-23T06:59:03;101097.72;;;8.66;100.00
71567;BME280;59403;47.456;19.120;2022-10-23T07:01:33;101105.00;;;8.74;100.00
71567;BME280;59403;47.456;19.120;2022-10-23T07:04:00;101111.56;;;8.79;100.00
71567;BME280;59403;47.456;19.120;2022-10-23T07:06:27;101110.06;;;8.86;100.00
71567;BME280;59403;47.456;19.120;2022-10-23T07:08:54;101104.16;;;8.94;100.00
71567;BME280;59403;47.456;19.120;2022-10-23T07:11:20;101105.59;;;8.98;100.00
71567;BME280;59403;47.456;19.120;2022-10-23T07:13:47;101107.69;;;9.04;100.00
71567;BME280;59403;47.456;19.120;2022-10-23T07:16:16;101106.22;;;9.11;100.00
71567;BME280;59403;47.456;19.120;2022-10-23T07:18:45;101113.34;;;9.20;100.00
71567;BME280;59403;47.456;19.120;2022-10-23T07:21:12;101112.00;;;9.26;100.00
71567;BME280;59403;47.456;19.120;2022-10-23T07:23:39;101110.75;;;9.30;100.00
71567;BME280;59403;47.456;19.120;2022-10-23T07:26:06;101115.37;;;9.37;100.00
71567;BME280;59403;47.456;19.120;2022-10-23T07:28:34;101120.69;;;9.37;100.00
71567;BME280;59403;47.456;19.120;2022-10-23T07:31:01;101122.41;;;9.48;100.00
71567;BME280;59403;47.456;19.120;2022-10-23T07:33:28;101126.72;;;9.49;100.00
71567;BME280;59403;47.456;19.120;2022-10-23T07:35:57;101114.34;;;9.49;100.00
71567;BME280;59403;47.456;19.120;2022-10-23T07:38:24;101115.91;;;9.61;100.00
71567;BME280;59403;47.456;19.120;2022-10-23T07:40:51;101111.06;;;9.66;100.00
71567;BME280;59403;47.456;19.120;2022-10-23T07:43:19;101113.97;;;9.63;100.00
71567;BME280;59403;47.456;19.120;2022-10-23T07:45:47;101110.81;;;9.69;100.00
71567;BME280;59403;47.456;19.120;2022-10-23T07:48:14;101103.69;;;9.70;100.00
71567;BME280;59403;47.456;19.120;2022-10-23T07:50:41;101105.81;;;9.76;100.00
71567;BME280;59403;47.456;19.120;2022-10-23T07:53:14;101094.03;;;9.89;100.00
71567;BME280;59403;47.456;19.120;2022-10-23T07:55:42;101105.84;;;9.85;100.00
71567;BME280;59403;47.456;19.120;2022-10-23T07:58:09;101105.59;;;9.88;100.00
71567;BME280;59403;47.456;19.120;2022-10-23T08:00:38;101106.81;;;9.94;100.00
71567;BME280;59403;47.456;19.120;2022-10-23T08:03:06;101105.59;;;9.98;100.00
71567;BME280;59403;47.456;19.120;2022-10-23T08:05:33;101110.75;;;9.99;100.00
71567;BME280;59403;47.456;19.120;2022-10-23T08:08:00;101102.56;;;10.02;100.00
71567;BME280;59403;47.456;19.120;2022-10-23T08:10:28;101112.16;;;10.03;100.00
71567;BME280;59403;47.456;19.120;2022-10-23T08:12:55;101108.41;;;10.06;100.00
71567;BME280;59403;47.456;19.120;2022-10-23T08:15:22;101105.81;;;10.15;100.00
71567;BME280;59403;47.456;19.120;2022-10-23T08:17:49;101104.16;;;10.24;100.00
71567;BME280;59403;47.456;19.120;2022-10-23T08:20:15;101093.00;;;10.40;100.00
71567;BME280;59403;47.456;19.120;2022-10-23T08:22:42;101095.38;;;10.52;100.00
71567;BME280;59403;47.456;19.120;2022-10-23T08:25:10;101100.97;;;10.59;100.00
71567;BME280;59403;47.456;19.120;2022-10-23T08:27:38;101097.91;;;10.54;100.00
71567;BME280;59403;47.456;19.120;2022-10-23T08:30:05;101097.47;;;10.68;100.00
71567;BME280;59403;47.456;19.120;2022-10-23T08:32:32;101095.38;;;10.71;100.00
71567;BME280;59403;47.456;19.120;2022-10-23T08:34:59;101105.00;;;10.82;100.00
71567;BME280;59403;47.456;19.120;2022-10-23T08:37:26;101096.34;;;10.89;100.00
71567;BME280;59403;47.456;19.120;2022-10-23T08:39:53;101101.75;;;10.97;100.00
71567;BME280;59403;47.456;19.120;2022-10-23T08:42:23;101095.88;;;11.03;100.00
71567;BME280;59403;47.456;19.120;2022-10-23T08:44:58;101104.66;;;11.13;100.00
71567;BME280;59403;47.456;19.120;2022-10-23T08:47:32;101104.94;;;11.20;100.00
71567;BME280;59403;47.456;19.120;2022-10-23T08:50:06;101107.41;;;11.31;100.00
71567;BME280;59403;47.456;19.120;2022-10-23T08:52:40;101110.72;;;11.33;100.00
71567;BME280;59403;47.456;19.120;2022-10-23T08:55:15;101112.81;;;11.39;100.00
71567;BME280;59403;47.456;19.120;2022-10-23T08:57:48;101109.00;;;11.51;100.00
71567;BME280;59403;47.456;19.120;2022-10-23T09:00:19;101107.75;;;11.55;100.00
71567;BME280;59403;47.456;19.120;2022-10-23T09:02:47;101105.91;;;11.56;100.00
71567;BME280;59403;47.456;19.120;2022-10-23T09:05:19;101094.63;;;11.54;100.00
71567;BME280;59403;47.456;19.120;2022-10-23T09:08:11;101103.12;;;11.67;100.00
71567;BME280;59403;47.456;19.120;2022-10-23T09:10:54;101095.53;;;11.72;100.00
71567;BME280;59403;47.456;19.120;2022-10-23T09:13:39;101092.59;;;11.75;100.00
71567;BME280;59403;47.456;19.120;2022-10-23T09:16:21;101090.78;;;11.75;100.00
71567;BME280;59403;47.456;19.120;2022-10-23T09:18:51;101087.31;;;11.92;100.00
71567;BME280;59403;47.456;19.120;2022-10-23T09:21:18;101092.38;;;11.95;100.00
71567;BME280;59403;47.456;19.120;2022-10-23T09:23:46;101100.09;;;12.06;100.00
71567;BME280;59403;47.456;19.120;2022-10-23T09:26:15;101101.56;;;12.18;100.00
71567;BME280;59403;47.456;19.120;2022-10-23T09:28:45;101099.13;;;12.25;100.00
71567;BME280;59403;47.456;19.120;2022-10-23T09:31:15;101099.59;;;12.38;100.00
71567;BME280;59403;47.456;19.120;2022-10-23T09:33:53;101096.59;;;12.50;100.00
71567;BME280;59403;47.456;19.120;2022-10-23T09:36:21;101108.81;;;12.61;100.00
71567;BME280;59403;47.456;19.120;2022-10-23T09:38:52;101111.91;;;12.74;100.00
71567;BME280;59403;47.456;19.120;2022-10-23T09:41:21;101113.62;;;12.83;100.00
71567;BME280;59403;47.456;19.120;2022-10-23T09:43:59;101115.31;;;13.02;100.00
71567;BME280;59403;47.456;19.120;2022-10-23T09:46:37;101114.91;;;12.97;100.00
71567;BME280;59403;47.456;19.120;2022-10-23T09:49:05;101113.53;;;13.10;100.00
71567;BME280;59403;47.456;19.120;2022-10-23T09:51:32;101120.91;;;13.16;100.00
71567;BME280;59403;47.456;19.120;2022-10-23T09:54:00;101116.69;;;13.31;100.00
71567;BME280;59403;47.456;19.120;2022-10-23T09:56:29;101116.88;;;13.38;100.00
71567;BME280;59403;47.456;19.120;2022-10-23T09:58:58;101123.09;;;13.46;100.00
71567;BME280;59403;47.456;19.120;2022-10-23T10:01:26;101116.34;;;13.60;100.00
71567;BME280;59403;47.456;19.120;2022-10-23T10:03:55;101113.00;;;13.58;100.00
71567;BME280;59403;47.456;19.120;2022-10-23T10:06:24;101104.75;;;13.69;100.00
71567;BME280;59403;47.456;19.120;2022-10-23T10:08:53;101105.63;;;13.78;100.00
71567;BME280;59403;47.456;19.120;2022-10-23T10:11:25;101113.47;;;13.87;100.00
71567;BME280;59403;47.456;19.120;2022-10-23T10:17:01;101095.69;;;13.96;100.00
71567;BME280;59403;47.456;19.120;2022-10-23T10:19:43;101092.69;;;13.99;100.00
71567;BME280;59403;47.456;19.120;2022-10-23T10:22:25;101083.56;;;14.09;100.00
71567;BME280;59403;47.456;19.120;2022-10-23T10:24:59;101078.63;;;14.14;100.00
71567;BME280;59403;47.456;19.120;2022-10-23T10:27:36;101071.09;;;14.18;100.00
71567;BME280;59403;47.456;19.120;2022-10-23T10:30:12;101067.84;;;14.32;100.00
71567;BME280;59403;47.456;19.120;2022-10-23T10:32:44;101066.50;;;14.44;99.96
71567;BME280;59403;47.456;19.120;2022-10-23T10:35:38;101072.38;;;14.55;99.81
71567;BME280;59403;47.456;19.120;2022-10-23T10:38:17;101068.38;;;14.67;99.11
71567;BME280;59403;47.456;19.120;2022-10-23T10:41:06;101066.69;;;14.74;98.62
71567;BME280;59403;47.456;19.120;2022-10-23T10:43:40;101057.03;;;14.65;98.42
71567;BME280;59403;47.456;19.120;2022-10-23T10:46:12;101067.69;;;14.65;99.05
71567;BME280;59403;47.456;19.120;2022-10-23T10:48:45;101066.34;;;14.61;99.79
71567;BME280;59403;47.456;19.120;2022-10-23T10:51:21;101058.34;;;14.61;99.07
71567;BME280;59403;47.456;19.120;2022-10-23T10:54:00;101052.88;;;14.71;99.27
71567;BME280;59403;47.456;19.120;2022-10-23T10:56:32;101051.03;;;14.47;99.99
71567;BME280;59403;47.456;19.120;2022-10-23T10:59:03;101036.53;;;14.58;99.74
71567;BME280;59403;47.456;19.120;2022-10-23T11:01:40;101041.03;;;14.65;100.00
71567;BME280;59403;47.456;19.120;2022-10-23T11:04:13;101038.22;;;14.59;99.75
71567;BME280;59403;47.456;19.120;2022-10-23T11:06:47;101025.38;;;14.54;100.00
71567;BME280;59403;47.456;19.120;2022-10-23T11:09:20;101023.53;;;14.71;99.60
71567;BME280;59403;47.456;19.120;2022-10-23T11:11:48;101027.19;;;14.70;100.00
71567;BME280;59403;47.456;19.120;2022-10-23T11:14:16;101015.53;;;14.55;100.00
71567;BME280;59403;47.456;19.120;2022-10-23T11:16:45;101017.38;;;14.78;99.43
71567;BME280;59403;47.456;19.120;2022-10-23T11:19:20;101016.87;;;14.83;99.83
71567;BME280;59403;47.456;19.120;2022-10-23T11:21:56;101009.53;;;14.85;98.50
71567;BME280;59403;47.456;19.120;2022-10-23T11:24:49;101022.19;;;14.83;98.08
71567;BME280;59403;47.456;19.120;2022-10-23T11:27:30;101021.69;;;14.88;98.42
71567;BME280;59403;47.456;19.120;2022-10-23T11:30:12;101011.88;;;14.80;97.62
71567;BME280;59403;47.456;19.120;2022-10-23T11:32:56;101015.34;;;14.89;98.47
71567;BME280;59403;47.456;19.120;2022-10-23T11:35:47;101014.34;;;14.98;98.39
71567;BME280;59403;47.456;19.120;2022-10-23T11:38:24;101008.97;;;15.06;98.67
71567;BME280;59403;47.456;19.120;2022-10-23T11:40:54;101011.81;;;14.96;97.94
71567;BME280;59403;47.456;19.120;2022-10-23T11:43:28;101000.00;;;14.99;98.13
71567;BME280;59403;47.456;19.120;2022-10-23T11:45:55;101004.47;;;15.06;97.78
71567;BME280;59403;47.456;19.120;2022-10-23T11:48:34;101000.63;;;15.09;97.23
71567;BME280;59403;47.456;19.120;2022-10-23T11:51:03;101004.62;;;15.13;97.67
71567;BME280;59403;47.456;19.120;2022-10-23T11:53:39;100999.59;;;15.18;97.12
71567;BME280;59403;47.456;19.120;2022-10-23T11:56:24;101011.59;;;15.22;96.73
71567;BME280;59403;47.456;19.120;2022-10-23T11:58:55;101003.56;;;15.30;95.80
71567;BME280;59403;47.456;19.120;2022-10-23T12:01:33;101009.56;;;15.32;95.18
71567;BME280;59403;47.456;19.120;2022-10-23T12:04:13;101006.22;;;15.30;95.99
71567;BME280;59403;47.456;19.120;2022-10-23T12:06:45;101001.56;;;15.24;96.25
71567;BME280;59403;47.456;19.120;2022-10-23T12:09:33;100987.91;;;15.27;96.61
71567;BME280;59403;47.456;19.120;2022-10-23T12:12:25;100984.22;;;15.28;96.67
71567;BME280;59403;47.456;19.120;2022-10-23T12:15:06;100987.72;;;15.28;96.15
71567;BME280;59403;47.456;19.120;2022-10-23T12:17:35;100983.72;;;15.32;95.18
71567;BME280;59403;47.456;19.120;2022-10-23T12:20:26;100986.53;;;15.31;95.79
71567;BME280;59403;47.456;19.120;2022-10-23T12:23:14;100973.19;;;15.31;94.75
71567;BME280;59403;47.456;19.120;2022-10-23T12:25:59;100969.03;;;15.28;95.15
71567;BME280;59403;47.456;19.120;2022-10-23T12:28:36;100962.87;;;15.28;95.01
71567;BME280;59403;47.456;19.120;2022-10-23T12:31:20;100956.38;;;15.30;95.80
71567;BME280;59403;47.456;19.120;2022-10-23T12:33:59;100961.84;;;15.37;95.35
71567;BME280;59403;47.456;19.120;2022-10-23T12:36:47;100959.81;;;15.39;95.64
71567;BME280;59403;47.456;19.120;2022-10-23T12:41:46;100951.16;;;15.75;93.35
71567;BME280;59403;47.456;19.120;2022-10-23T12:44:13;100948.31;;;15.69;93.56
71567;BME280;59403;47.456;19.120;2022-10-23T12:46:41;100940.25;;;15.54;95.08
71567;BME280;59403;47.456;19.120;2022-10-23T12:49:13;100946.19;;;15.34;95.43
71567;BME280;59403;47.456;19.120;2022-10-23T12:51:40;100944.06;;;15.21;96.31
71567;BME280;59403;47.456;19.120;2022-10-23T12:54:14;100945.87;;;15.21;97.05
71567;BME280;59403;47.456;19.120;2022-10-23T12:56:41;100936.59;;;15.17;96.68
71567;BME280;59403;47.456;19.120;2022-10-23T12:59:14;100927.66;;;15.32;97.18
71567;BME280;59403;47.456;19.120;2022-10-23T13:01:42;100929.16;;;15.35;96.92
71567;BME280;59403;47.456;19.120;2022-10-23T13:04:14;100918.28;;;15.36;95.36